Vaughn, Montana
Current Conditions -  °F | °C
As of 3:53 AM on Wednesday 22 Oct 2014 (Local Time) from KGTF Reporting Station
Clear Clear  
Wind Chill: 33°   Ceiling: Unl
Heat Index: 41°   Visibility: 10mi
Dew Point: 34°   Wind: 15mph
Humidity: 76%   Direction: 210°SSW
Pressure: 29.93"   Gusts: NA
Location:  47.56°N, 111.55°W
Report Text: KGTF 220953Z 21013KT 10SM CLR 05/01 A2993 RMK AO2 SLP149 T00500011
Loading
Personal Weather Stations






























Interactive Weather Map
Tropical Storm Tracking
New forecast layout! Learn more

10-Day Weather Forecast

Advertisements
Track Severe Weather on mobile